createdAt,value
2023-01-22T00:01:24.803Z,3.58
2023-01-22T00:03:53.364Z,3.00
2023-01-22T00:06:21.322Z,3.53
2023-01-22T00:08:48.324Z,3.15
2023-01-22T00:11:16.145Z,2.90
2023-01-22T00:13:43.259Z,4.55
2023-01-22T00:16:13.021Z,2.92
2023-01-22T00:18:39.890Z,2.92
2023-01-22T00:21:06.991Z,2.95
2023-01-22T00:23:35.076Z,2.72
2023-01-22T00:26:13.699Z,2.53
2023-01-22T00:28:41.799Z,2.88
2023-01-22T00:31:10.110Z,3.42
2023-01-22T00:33:38.620Z,2.78
2023-01-22T00:36:07.749Z,3.58
2023-01-22T00:38:34.771Z,3.38
2023-01-22T00:41:02.711Z,3.05
2023-01-22T00:43:30.312Z,3.20
2023-01-22T00:45:57.036Z,4.38
2023-01-22T00:48:23.707Z,2.90
2023-01-22T00:50:50.454Z,3.65
2023-01-22T00:53:18.342Z,2.95
2023-01-22T00:55:55.357Z,3.58
2023-01-22T00:58:22.538Z,3.83
2023-01-22T01:00:49.618Z,2.95
2023-01-22T01:03:30.251Z,3.67
2023-01-22T01:06:00.708Z,3.00
2023-01-22T01:08:29.251Z,2.78
2023-01-22T01:11:00.623Z,3.17
2023-01-22T01:13:28.673Z,2.83
2023-01-22T01:16:04.580Z,2.72
2023-01-22T01:18:31.745Z,2.80
2023-01-22T01:20:59.991Z,2.72
2023-01-22T01:23:28.197Z,2.88
2023-01-22T01:25:56.791Z,2.72
2023-01-22T01:28:24.929Z,3.00
2023-01-22T01:30:51.831Z,3.22
2023-01-22T01:33:18.505Z,3.65
2023-01-22T01:35:45.164Z,3.03
2023-01-22T01:38:11.842Z,3.72
2023-01-22T01:40:43.749Z,2.92
2023-01-22T01:43:17.446Z,3.17
2023-01-22T01:45:44.655Z,2.78
2023-01-22T01:48:46.865Z,3.10
2023-01-22T01:51:25.517Z,3.47
2023-01-22T01:53:52.310Z,3.28
2023-01-22T01:56:26.919Z,2.97
2023-01-22T01:58:57.567Z,3.30
2023-01-22T02:01:24.580Z,3.17
2023-01-22T02:03:51.390Z,3.45
2023-01-22T02:06:19.925Z,2.58
2023-01-22T02:08:48.487Z,3.17
2023-01-22T02:11:16.590Z,3.25
2023-01-22T02:13:51.521Z,4.63
2023-01-22T02:16:18.937Z,3.13
2023-01-22T02:18:45.612Z,4.05
2023-01-22T02:21:44.829Z,2.88
2023-01-22T02:24:14.273Z,3.42
2023-01-22T02:26:42.712Z,3.60
2023-01-22T02:29:11.475Z,3.30
2023-01-22T02:31:39.388Z,4.80
2023-01-22T02:34:09.059Z,3.97
2023-01-22T02:36:37.392Z,4.10
2023-01-22T02:39:06.164Z,4.15
2023-01-22T02:41:33.271Z,3.45
2023-01-22T02:44:00.001Z,3.83
2023-01-22T02:46:28.965Z,2.80
2023-01-22T02:48:55.653Z,4.18
2023-01-22T02:51:22.384Z,4.68
2023-01-22T02:53:52.821Z,3.55
2023-01-22T02:56:20.022Z,3.13
2023-01-22T02:58:46.700Z,2.97
2023-01-22T03:01:23.437Z,3.78
2023-01-22T03:03:59.603Z,3.15
2023-01-22T03:06:28.422Z,4.05
2023-01-22T03:08:59.747Z,2.90
2023-01-22T03:11:28.300Z,2.63
2023-01-22T03:14:14.307Z,2.55
2023-01-22T03:16:59.920Z,3.45
2023-01-22T03:19:45.436Z,2.92
2023-01-22T03:22:12.401Z,3.47
2023-01-22T03:24:39.113Z,3.38
2023-01-22T03:27:05.876Z,3.47
2023-01-22T03:29:32.614Z,3.20
2023-01-22T03:31:59.384Z,2.92
2023-01-22T03:34:26.724Z,2.72
2023-01-22T03:36:53.418Z,3.03
2023-01-22T03:39:20.198Z,2.00
2023-01-22T03:41:46.886Z,2.67
2023-01-22T03:44:14.354Z,2.97
2023-01-22T03:46:41.310Z,3.17
2023-01-22T03:49:08.655Z,3.83
2023-01-22T03:51:35.725Z,3.03
2023-01-22T03:54:02.442Z,2.40
2023-01-22T03:56:29.502Z,2.95
2023-01-22T03:58:56.568Z,2.38
2023-01-22T04:01:25.601Z,2.67
2023-01-22T04:03:53.103Z,2.67
2023-01-22T04:06:20.633Z,2.95
2023-01-22T04:08:50.100Z,2.47
2023-01-22T04:11:17.291Z,3.85
2023-01-22T04:13:45.017Z,2.38
2023-01-22T04:16:12.471Z,3.00
2023-01-22T04:18:39.459Z,2.53
2023-01-22T04:21:06.163Z,2.60
2023-01-22T04:23:32.943Z,2.60
2023-01-22T04:25:59.719Z,2.88
2023-01-22T04:28:26.375Z,2.10
2023-01-22T04:30:54.743Z,2.35
2023-01-22T04:33:21.685Z,2.40
2023-01-22T04:35:52.683Z,2.47
2023-01-22T04:38:19.504Z,3.15
2023-01-22T04:40:46.238Z,5.05
2023-01-22T04:43:13.427Z,3.33
2023-01-22T04:45:40.281Z,5.68
2023-01-22T04:48:08.621Z,2.33
2023-01-22T04:50:35.685Z,2.97
2023-01-22T04:53:03.094Z,2.78
2023-01-22T04:55:30.098Z,2.47
2023-01-22T04:57:58.657Z,2.47
2023-01-22T05:00:26.251Z,3.25
2023-01-22T05:02:57.557Z,2.83
2023-01-22T05:05:24.302Z,3.10
2023-01-22T05:07:50.984Z,7.97
2023-01-22T05:10:17.945Z,3.85
2023-01-22T05:12:45.283Z,7.47
2023-01-22T05:15:23.088Z,5.68
2023-01-22T05:17:50.674Z,3.33
2023-01-22T05:20:18.800Z,2.47
2023-01-22T05:22:45.643Z,6.32
2023-01-22T05:25:12.657Z,6.13
2023-01-22T05:27:39.462Z,4.72
2023-01-22T05:30:07.330Z,2.92
2023-01-22T05:32:33.999Z,2.75
2023-01-22T05:35:00.710Z,3.13
2023-01-22T05:37:27.405Z,2.90
2023-01-22T05:39:54.528Z,3.53
2023-01-22T05:42:21.277Z,3.33
2023-01-22T05:44:48.318Z,3.03
2023-01-22T05:47:15.337Z,3.45
2023-01-22T05:49:42.270Z,13.88
2023-01-22T05:52:11.011Z,4.05
2023-01-22T05:54:40.725Z,6.95
2023-01-22T05:57:07.555Z,5.10
2023-01-22T05:59:34.277Z,4.28
2023-01-22T06:02:01.363Z,6.10
2023-01-22T06:04:29.420Z,5.40
2023-01-22T06:06:56.118Z,4.43
2023-01-22T06:09:22.879Z,3.25
2023-01-22T06:11:49.872Z,3.75
2023-01-22T06:14:16.673Z,5.75
2023-01-22T06:16:43.470Z,3.75
2023-01-22T06:19:12.630Z,2.80
2023-01-22T06:24:06.223Z,3.28
2023-01-22T06:26:34.003Z,3.03
2023-01-22T06:29:00.745Z,3.40
2023-01-22T06:31:27.534Z,2.63
2023-01-22T06:33:54.924Z,3.67
2023-01-22T06:36:21.805Z,3.33
2023-01-22T06:38:48.449Z,3.10
2023-01-22T06:41:15.161Z,3.08
2023-01-22T06:43:41.803Z,2.47
2023-01-22T06:46:08.574Z,3.67
2023-01-22T06:48:35.319Z,2.78
2023-01-22T06:51:02.071Z,2.90
2023-01-22T06:53:30.379Z,3.20
2023-01-22T06:55:59.877Z,4.05
2023-01-22T06:58:26.564Z,3.92
2023-01-22T07:00:53.303Z,3.25
2023-01-22T07:03:20.366Z,3.75
2023-01-22T07:05:47.068Z,4.68
2023-01-22T07:08:15.570Z,4.88
2023-01-22T07:10:42.420Z,4.70
2023-01-22T07:13:10.494Z,4.35
2023-01-22T07:15:37.371Z,4.82
2023-01-22T07:18:04.128Z,4.75
2023-01-22T07:20:30.810Z,3.90
2023-01-22T07:23:00.237Z,3.83
2023-01-22T07:25:27.679Z,3.40
2023-01-22T07:28:01.463Z,6.05
2023-01-22T07:30:28.425Z,3.00
2023-01-22T07:32:59.808Z,3.13
2023-01-22T07:35:27.481Z,3.42
2023-01-22T07:37:55.269Z,3.72
2023-01-22T07:40:24.714Z,7.47
2023-01-22T07:42:52.187Z,3.90
2023-01-22T07:45:19.836Z,3.45
2023-01-22T07:47:59.857Z,3.55
2023-01-22T07:50:28.928Z,3.20
2023-01-22T07:52:56.267Z,3.75
2023-01-22T07:55:23.384Z,7.63
2023-01-22T07:58:00.779Z,4.45
2023-01-22T08:00:27.615Z,5.03
2023-01-22T08:02:54.400Z,3.92
2023-01-22T08:05:21.187Z,3.70
2023-01-22T08:07:47.861Z,4.28
2023-01-22T08:10:15.262Z,4.13
2023-01-22T08:12:46.315Z,3.78
2023-01-22T08:15:13.984Z,4.07
2023-01-22T08:17:43.380Z,4.03
2023-01-22T08:20:12.518Z,4.75
2023-01-22T08:25:06.084Z,9.45
2023-01-22T08:27:35.191Z,4.60
2023-01-22T08:32:29.372Z,3.85
2023-01-22T08:34:56.276Z,3.78
2023-01-22T08:37:23.582Z,4.05
2023-01-22T08:39:50.340Z,4.88
2023-01-22T08:42:17.079Z,2.80
2023-01-22T08:44:43.756Z,3.95
2023-01-22T08:47:11.626Z,3.10
2023-01-22T08:49:38.555Z,3.40
2023-01-22T08:52:05.897Z,3.92
2023-01-22T08:54:32.626Z,3.95
2023-01-22T08:56:59.492Z,4.72
2023-01-22T08:59:26.446Z,5.85
2023-01-22T09:01:53.221Z,3.90
2023-01-22T09:04:20.031Z,4.03
2023-01-22T09:06:47.089Z,3.10
2023-01-22T09:09:13.794Z,3.13
2023-01-22T09:11:40.953Z,4.05
2023-01-22T09:14:09.803Z,4.93
2023-01-22T09:16:37.162Z,3.15
2023-01-22T09:19:04.860Z,3.40
2023-01-22T09:21:33.364Z,6.18
2023-01-22T09:24:00.770Z,2.67
2023-01-22T09:26:27.550Z,3.85
2023-01-22T09:28:54.218Z,4.22
2023-01-22T09:31:20.968Z,4.82
2023-01-22T09:33:47.634Z,4.78
2023-01-22T09:36:16.151Z,5.85
2023-01-22T09:38:43.508Z,4.18
2023-01-22T09:41:20.550Z,6.43
2023-01-22T09:44:14.060Z,3.72
2023-01-22T09:46:49.101Z,5.80
2023-01-22T09:49:20.045Z,4.85
2023-01-22T09:51:58.334Z,3.38
2023-01-22T09:54:26.083Z,3.92
2023-01-22T09:56:54.499Z,3.00
2023-01-22T09:59:23.976Z,4.35
2023-01-22T10:01:53.694Z,3.75
2023-01-22T10:04:54.043Z,4.47
2023-01-22T10:07:36.900Z,4.70
2023-01-22T10:10:30.203Z,4.50
2023-01-22T10:13:18.918Z,4.35
2023-01-22T10:15:46.489Z,4.90
2023-01-22T10:18:44.114Z,4.05
2023-01-22T10:21:31.890Z,6.13
2023-01-22T10:23:59.151Z,5.22
2023-01-22T10:26:41.196Z,5.45
2023-01-22T10:29:21.288Z,3.72
2023-01-22T10:31:52.242Z,5.30
2023-01-22T10:34:32.638Z,5.05
2023-01-22T10:37:02.466Z,12.82
2023-01-22T10:39:43.146Z,7.00
2023-01-22T10:42:35.966Z,6.88
2023-01-22T10:45:19.688Z,7.70
2023-01-22T10:47:46.484Z,5.50
2023-01-22T10:50:15.335Z,6.22
2023-01-22T10:52:51.338Z,4.57
2023-01-22T10:55:22.743Z,6.82
2023-01-22T10:57:55.135Z,6.60
2023-01-22T11:00:46.423Z,5.00
2023-01-22T11:03:42.536Z,4.32
2023-01-22T11:06:33.284Z,5.85
2023-01-22T11:09:07.099Z,5.05
2023-01-22T11:11:40.348Z,6.57
2023-01-22T11:14:31.235Z,7.15
2023-01-22T11:17:05.045Z,5.15
2023-01-22T11:19:40.332Z,7.63
2023-01-22T11:22:21.999Z,5.03
2023-01-22T11:24:49.007Z,4.30
2023-01-22T11:27:27.820Z,6.30
2023-01-22T11:30:19.145Z,4.40
2023-01-22T11:33:02.013Z,4.30
2023-01-22T11:38:43.161Z,4.60
2023-01-22T11:41:26.227Z,3.88
2023-01-22T11:44:03.967Z,4.82
2023-01-22T11:46:45.789Z,4.18
2023-01-22T11:49:30.848Z,4.63
2023-01-22T11:52:26.774Z,4.13
2023-01-22T11:55:21.103Z,3.95
2023-01-22T11:58:11.413Z,5.63
2023-01-22T12:01:02.452Z,7.03
2023-01-22T12:03:48.793Z,10.13
2023-01-22T12:06:27.630Z,4.53
2023-01-22T12:09:06.209Z,4.72
2023-01-22T12:11:51.189Z,5.68
2023-01-22T12:14:21.106Z,5.60
2023-01-22T12:17:06.688Z,7.70
2023-01-22T12:19:46.037Z,5.35
2023-01-22T12:22:43.805Z,4.80
2023-01-22T12:25:36.818Z,4.60
2023-01-22T12:28:28.249Z,4.50
2023-01-22T12:31:05.115Z,5.38
2023-01-22T12:33:39.184Z,7.30
2023-01-22T12:36:07.049Z,4.72
2023-01-22T12:38:50.859Z,4.10
2023-01-22T12:41:39.184Z,5.40
2023-01-22T12:44:44.886Z,4.63
2023-01-22T12:47:45.207Z,4.65
2023-01-22T12:50:20.645Z,4.65
2023-01-22T12:53:04.545Z,5.22
2023-01-22T12:55:38.215Z,7.80
2023-01-22T12:58:05.267Z,4.55
2023-01-22T13:00:34.976Z,4.30
2023-01-22T13:03:31.624Z,5.20
2023-01-22T13:05:59.933Z,4.30
2023-01-22T13:08:46.905Z,5.57
2023-01-22T13:11:26.800Z,6.03
2023-01-22T13:14:16.659Z,5.55
2023-01-22T13:16:57.795Z,5.78
2023-01-22T13:19:45.764Z,5.05
2023-01-22T13:22:23.745Z,5.55
2023-01-22T13:24:54.124Z,7.85
2023-01-22T13:27:32.988Z,5.60
2023-01-22T13:30:18.600Z,7.03
2023-01-22T13:32:45.501Z,7.50
2023-01-22T13:35:15.097Z,5.32
2023-01-22T13:37:44.123Z,6.38
2023-01-22T13:40:42.730Z,5.90
2023-01-22T13:43:19.294Z,5.25
2023-01-22T13:45:46.284Z,6.45
2023-01-22T13:48:17.573Z,6.32
2023-01-22T13:50:59.616Z,6.90
2023-01-22T13:53:34.067Z,6.25
2023-01-22T13:56:01.304Z,5.20
2023-01-22T13:58:49.593Z,7.40
2023-01-22T14:01:34.840Z,9.07
2023-01-22T14:04:07.846Z,7.20
2023-01-22T14:06:49.463Z,6.07
2023-01-22T14:09:30.684Z,7.28
2023-01-22T14:11:58.206Z,5.18
2023-01-22T14:14:25.293Z,5.93
2023-01-22T14:16:52.358Z,6.63
2023-01-22T14:19:19.354Z,10.15
2023-01-22T14:21:46.102Z,10.40
2023-01-22T14:24:12.893Z,5.47
2023-01-22T14:26:39.587Z,7.00
2023-01-22T14:29:07.214Z,7.93
2023-01-22T14:31:33.948Z,8.00
2023-01-22T14:34:00.729Z,9.43
2023-01-22T14:36:27.393Z,7.53
2023-01-22T14:38:55.456Z,9.35
2023-01-22T14:41:22.135Z,8.93
2023-01-22T14:43:50.009Z,6.50
2023-01-22T14:46:16.747Z,7.43
2023-01-22T14:48:43.410Z,8.13
2023-01-22T14:51:11.610Z,7.97
2023-01-22T14:53:38.656Z,11.30
2023-01-22T14:56:05.697Z,20.63
2023-01-22T14:58:32.413Z,9.10
2023-01-22T15:00:59.146Z,6.95
2023-01-22T15:03:29.306Z,9.63
2023-01-22T15:05:55.993Z,7.85
2023-01-22T15:08:22.847Z,7.30
2023-01-22T15:10:49.517Z,10.93
2023-01-22T15:13:16.289Z,12.52
2023-01-22T15:15:43.058Z,11.48
2023-01-22T15:18:09.809Z,9.65
2023-01-22T15:20:36.511Z,10.43
2023-01-22T15:23:03.193Z,9.38
2023-01-22T15:25:29.951Z,9.07
2023-01-22T15:27:56.579Z,8.68
2023-01-22T15:30:23.509Z,8.00
2023-01-22T15:32:50.315Z,9.45
2023-01-22T15:35:17.142Z,9.50
2023-01-22T15:37:43.867Z,6.45
2023-01-22T15:40:11.343Z,10.55
2023-01-22T15:42:38.049Z,8.15
2023-01-22T15:45:05.709Z,13.60
2023-01-22T15:47:32.460Z,11.00
2023-01-22T15:49:59.165Z,12.00
2023-01-22T15:52:25.875Z,9.20
2023-01-22T15:54:54.012Z,6.82
2023-01-22T15:57:20.918Z,7.72
2023-01-22T15:59:47.674Z,7.80
2023-01-22T16:02:14.486Z,8.02
2023-01-22T16:04:41.226Z,10.05
2023-01-22T16:07:07.909Z,8.35
2023-01-22T16:09:34.631Z,8.18
2023-01-22T16:12:01.339Z,8.68
2023-01-22T16:14:29.503Z,8.52
2023-01-22T16:16:56.383Z,9.02
2023-01-22T16:19:23.156Z,7.97
2023-01-22T16:21:49.908Z,8.25
2023-01-22T16:24:16.820Z,8.20
2023-01-22T16:26:43.545Z,8.73
2023-01-22T16:29:10.421Z,7.57
2023-01-22T16:31:37.609Z,8.95
2023-01-22T16:34:13.374Z,10.95
2023-01-22T16:36:41.180Z,10.32
2023-01-22T16:39:08.300Z,9.90
2023-01-22T16:41:36.153Z,12.77
2023-01-22T16:44:11.569Z,11.85
2023-01-22T16:49:18.419Z,10.43
2023-01-22T16:52:03.172Z,10.32
2023-01-22T16:54:37.896Z,8.32
2023-01-22T16:57:07.065Z,11.90
2023-01-22T16:59:35.154Z,11.52
2023-01-22T17:02:03.304Z,14.70
2023-01-22T17:04:30.069Z,9.35
2023-01-22T17:07:00.139Z,10.75
2023-01-22T17:09:32.184Z,10.52
2023-01-22T17:12:01.629Z,10.40
2023-01-22T17:14:30.685Z,11.52
2023-01-22T17:16:58.176Z,8.20
2023-01-22T17:19:25.387Z,8.38
2023-01-22T17:22:01.842Z,7.40
2023-01-22T17:24:29.913Z,8.70
2023-01-22T17:27:02.650Z,7.97
2023-01-22T17:29:35.034Z,8.90
2023-01-22T17:32:05.823Z,7.13
2023-01-22T17:34:32.619Z,8.25
2023-01-22T17:36:59.287Z,7.85
2023-01-22T17:39:26.189Z,8.63
2023-01-22T17:41:52.883Z,8.02
2023-01-22T17:44:19.762Z,7.53
2023-01-22T17:46:49.218Z,6.82
2023-01-22T17:49:16.064Z,8.00
2023-01-22T17:51:43.459Z,8.93
2023-01-22T17:54:10.399Z,9.13
2023-01-22T17:56:40.196Z,6.28
2023-01-22T17:59:07.271Z,8.05
2023-01-22T18:01:36.098Z,9.27
2023-01-22T18:04:06.727Z,12.15
2023-01-22T18:06:34.207Z,9.55
2023-01-22T18:09:01.049Z,8.23
2023-01-22T18:11:29.582Z,10.75
2023-01-22T18:14:00.354Z,9.68
2023-01-22T18:16:29.610Z,10.63
2023-01-22T18:18:57.279Z,10.05
2023-01-22T18:21:24.299Z,9.70
2023-01-22T18:23:52.350Z,10.55
2023-01-22T18:26:22.892Z,9.95
2023-01-22T18:28:50.763Z,9.23
2023-01-22T18:31:19.225Z,8.82
2023-01-22T18:33:48.269Z,9.82
2023-01-22T18:36:18.036Z,9.43
2023-01-22T18:38:44.795Z,9.68
2023-01-22T18:41:15.427Z,8.32
2023-01-22T18:43:42.498Z,8.80
2023-01-22T18:46:11.997Z,10.50
2023-01-22T18:48:42.391Z,11.38
2023-01-22T18:51:13.349Z,9.73
2023-01-22T18:53:41.363Z,10.57
2023-01-22T18:56:09.908Z,11.45
2023-01-22T18:58:37.887Z,10.00
2023-01-22T19:01:19.465Z,10.20
2023-01-22T19:03:49.239Z,9.70
2023-01-22T19:06:18.064Z,11.55
2023-01-22T19:08:49.127Z,10.00
2023-01-22T19:11:16.619Z,9.40
2023-01-22T19:13:44.998Z,11.30
2023-01-22T19:16:14.385Z,11.43
2023-01-22T19:18:42.626Z,10.68
2023-01-22T19:21:16.420Z,8.82
2023-01-22T19:23:47.603Z,9.23
2023-01-22T19:26:18.745Z,10.98
2023-01-22T19:28:47.945Z,11.85
2023-01-22T19:31:46.507Z,10.63
2023-01-22T19:34:16.584Z,9.52
2023-01-22T19:36:43.332Z,8.38
2023-01-22T19:39:12.898Z,9.57
2023-01-22T19:41:40.840Z,10.55
2023-01-22T19:44:11.067Z,9.48
2023-01-22T19:46:39.063Z,8.43
2023-01-22T19:49:06.910Z,9.25
2023-01-22T19:51:34.181Z,7.43
2023-01-22T19:54:02.132Z,9.55
2023-01-22T19:56:30.883Z,9.95
2023-01-22T19:59:00.301Z,9.77
2023-01-22T20:01:27.292Z,8.98
2023-01-22T20:03:55.700Z,11.40
2023-01-22T20:06:23.429Z,9.25
2023-01-22T20:08:50.713Z,8.40
2023-01-22T20:11:17.723Z,9.00
2023-01-22T20:13:44.761Z,9.18
2023-01-22T20:16:30.162Z,8.02
2023-01-22T20:18:58.083Z,9.13
2023-01-22T20:21:26.966Z,9.75
2023-01-22T20:23:53.975Z,10.18
2023-01-22T20:26:21.648Z,9.85
2023-01-22T20:28:48.672Z,9.07
2023-01-22T20:31:20.023Z,9.60
2023-01-22T20:33:46.871Z,9.15
2023-01-22T20:36:17.600Z,8.82
2023-01-22T20:38:45.903Z,10.23
2023-01-22T20:41:13.563Z,8.90
2023-01-22T20:43:42.159Z,11.73
2023-01-22T20:46:12.587Z,9.98
2023-01-22T20:48:39.909Z,11.93
2023-01-22T20:51:17.957Z,11.93
2023-01-22T20:53:46.352Z,13.00
2023-01-22T20:56:18.714Z,12.77
2023-01-22T20:58:45.451Z,12.63
2023-01-22T21:01:15.732Z,11.63
2023-01-22T21:03:43.763Z,13.82
2023-01-22T21:06:13.904Z,13.18
2023-01-22T21:08:41.643Z,12.48
2023-01-22T21:11:11.386Z,13.15
2023-01-22T21:13:38.276Z,13.48
2023-01-22T21:16:09.923Z,12.45
2023-01-22T21:18:41.379Z,12.68
2023-01-22T21:21:09.026Z,12.35
2023-01-22T21:23:37.144Z,12.00
2023-01-22T21:26:09.497Z,11.90
2023-01-22T21:28:36.597Z,11.38
2023-01-22T21:31:13.260Z,11.57
2023-01-22T21:33:40.739Z,12.98
2023-01-22T21:36:08.605Z,12.00
2023-01-22T21:38:35.459Z,12.15
2023-01-22T21:41:13.363Z,10.23
2023-01-22T21:44:00.543Z,11.32
2023-01-22T21:46:30.083Z,10.75
2023-01-22T21:48:59.086Z,10.52
2023-01-22T21:51:26.759Z,12.00
2023-01-22T21:53:55.817Z,10.18
2023-01-22T21:56:23.249Z,10.32
2023-01-22T21:58:49.903Z,11.13
2023-01-22T22:01:21.042Z,10.25
2023-01-22T22:03:48.020Z,9.85
2023-01-22T22:06:14.781Z,10.27
2023-01-22T22:08:43.566Z,10.63
2023-01-22T22:11:11.554Z,10.65
2023-01-22T22:13:38.986Z,10.18
2023-01-22T22:16:08.118Z,9.90
2023-01-22T22:18:35.808Z,8.95
2023-01-22T22:21:04.805Z,11.23
2023-01-22T22:23:32.143Z,9.77
2023-01-22T22:25:59.077Z,9.95
2023-01-22T22:28:25.712Z,9.38
2023-01-22T22:30:52.668Z,10.07
2023-01-22T22:33:19.605Z,10.77
2023-01-22T22:35:46.801Z,9.73
2023-01-22T22:38:14.756Z,10.85
2023-01-22T22:40:41.751Z,9.60
2023-01-22T22:43:09.085Z,9.85
2023-01-22T22:45:37.738Z,9.75
2023-01-22T22:48:05.286Z,10.13
2023-01-22T22:50:32.019Z,8.88
2023-01-22T22:52:58.737Z,8.68
2023-01-22T22:55:28.705Z,8.45
2023-01-22T22:57:55.504Z,9.32
2023-01-22T23:00:22.538Z,10.07
2023-01-22T23:02:49.247Z,9.20
2023-01-22T23:05:15.963Z,10.80
2023-01-22T23:07:42.731Z,9.80
2023-01-22T23:10:28.960Z,9.95
2023-01-22T23:13:00.441Z,9.00
2023-01-22T23:15:28.730Z,9.00
2023-01-22T23:17:56.660Z,9.18
2023-01-22T23:20:24.824Z,8.70
2023-01-22T23:22:57.459Z,8.82
2023-01-22T23:25:24.739Z,9.52
2023-01-22T23:27:51.972Z,9.25
2023-01-22T23:30:19.172Z,7.85
2023-01-22T23:32:45.981Z,9.27
2023-01-22T23:35:12.749Z,8.48
2023-01-22T23:37:42.110Z,9.00
2023-01-22T23:42:35.626Z,8.68
2023-01-22T23:45:02.318Z,8.90
2023-01-22T23:47:30.689Z,9.77
2023-01-22T23:49:57.344Z,8.55
2023-01-22T23:52:24.053Z,8.25
2023-01-22T23:54:50.729Z,8.68
2023-01-22T23:57:17.468Z,7.47
2023-01-22T23:59:44.178Z,7.45
